createdAt,value
2023-04-04T00:00:24.581Z,410
2023-04-04T00:01:26.048Z,411
2023-04-04T00:02:23.470Z,408
2023-04-04T00:03:23.464Z,412
2023-04-04T00:04:23.450Z,420
2023-04-04T00:06:23.234Z,422
2023-04-04T00:07:23.353Z,419
2023-04-04T00:08:23.060Z,411
2023-04-04T00:09:23.390Z,422
2023-04-04T00:10:23.322Z,429
2023-04-04T00:11:23.382Z,433
2023-04-04T00:12:24.757Z,429
2023-04-04T00:13:22.761Z,417
2023-04-04T00:14:23.112Z,413
2023-04-04T00:15:23.838Z,412
2023-04-04T00:16:23.124Z,420
2023-04-04T00:17:23.310Z,409
2023-04-04T00:19:22.755Z,420
2023-04-04T00:21:23.250Z,424
2023-04-04T00:22:23.078Z,422
2023-04-04T00:23:22.893Z,429
2023-04-04T00:24:22.769Z,424
2023-04-04T00:26:22.650Z,415
2023-04-04T00:27:23.150Z,418
2023-04-04T00:28:23.577Z,413
2023-04-04T00:29:23.222Z,409
2023-04-04T00:30:22.980Z,421
2023-04-04T00:31:22.959Z,428
2023-04-04T00:32:23.033Z,418
2023-04-04T00:33:23.313Z,417
2023-04-04T00:34:23.044Z,415
2023-04-04T00:35:23.595Z,418
2023-04-04T00:36:23.915Z,416
2023-04-04T00:38:22.545Z,417
2023-04-04T00:39:23.386Z,411
2023-04-04T00:41:22.477Z,407
2023-04-04T00:42:23.071Z,411
2023-04-04T00:43:22.971Z,414
2023-04-04T00:45:23.023Z,397
2023-04-04T00:46:23.193Z,409
2023-04-04T00:47:23.587Z,426
2023-04-04T00:48:23.088Z,424
2023-04-04T00:49:23.151Z,418
2023-04-04T00:50:22.982Z,410
2023-04-04T00:52:22.979Z,407
2023-04-04T00:53:23.210Z,408
2023-04-04T00:54:22.464Z,422
2023-04-04T00:55:23.307Z,424
2023-04-04T00:56:23.261Z,417
2023-04-04T00:58:23.202Z,420
2023-04-04T00:59:23.156Z,423
2023-04-04T01:00:24.057Z,410
2023-04-04T01:01:23.427Z,417
2023-04-04T01:02:23.469Z,424
2023-04-04T01:03:22.993Z,414
2023-04-04T01:04:23.122Z,421
2023-04-04T01:05:22.965Z,426
2023-04-04T01:06:22.750Z,416
2023-04-04T01:07:22.972Z,411
2023-04-04T01:08:23.180Z,409
2023-04-04T01:09:23.320Z,416
2023-04-04T01:10:23.553Z,406
2023-04-04T01:12:23.480Z,398
2023-04-04T01:13:23.291Z,401
2023-04-04T01:14:23.321Z,404
2023-04-04T01:15:24.013Z,416
2023-04-04T01:17:23.337Z,419
2023-04-04T01:18:23.074Z,411
2023-04-04T01:19:22.873Z,418
2023-04-04T01:22:22.790Z,414
2023-04-04T01:23:22.779Z,423
2023-04-04T01:24:23.080Z,419
2023-04-04T01:26:23.360Z,419
2023-04-04T01:27:23.338Z,422
2023-04-04T01:28:22.750Z,428
2023-04-04T01:29:23.392Z,424
2023-04-04T01:30:23.484Z,414
2023-04-04T01:31:23.631Z,417
2023-04-04T01:32:28.412Z,416
2023-04-04T01:33:22.945Z,429
2023-04-04T01:34:22.774Z,424
2023-04-04T01:36:30.867Z,425
2023-04-04T01:37:23.496Z,419
2023-04-04T01:38:22.893Z,426
2023-04-04T01:39:22.825Z,420
2023-04-04T01:40:23.066Z,417
2023-04-04T01:41:22.823Z,426
2023-04-04T01:42:23.597Z,423
2023-04-04T01:43:23.253Z,430
2023-04-04T01:44:22.751Z,429
2023-04-04T01:45:23.383Z,423
2023-04-04T01:46:22.984Z,420
2023-04-04T01:47:22.831Z,427
2023-04-04T01:49:23.067Z,426
2023-04-04T01:50:23.224Z,429
2023-04-04T01:51:23.188Z,425
2023-04-04T01:52:23.208Z,424
2023-04-04T01:53:23.054Z,425
2023-04-04T01:54:23.477Z,429
2023-04-04T01:55:23.057Z,427
2023-04-04T01:56:23.479Z,426
2023-04-04T01:57:23.017Z,413
2023-04-04T01:58:22.727Z,431
2023-04-04T01:59:23.279Z,421
2023-04-04T02:00:23.866Z,415
2023-04-04T02:01:23.644Z,423
2023-04-04T02:02:23.686Z,427
2023-04-04T02:04:23.093Z,430
2023-04-04T02:05:23.364Z,416
2023-04-04T02:06:22.903Z,411
2023-04-04T02:07:23.572Z,415
2023-04-04T02:08:23.368Z,426
2023-04-04T02:09:23.146Z,428
2023-04-04T02:10:23.383Z,426
2023-04-04T02:12:23.358Z,422
2023-04-04T02:13:23.245Z,421
2023-04-04T02:15:23.293Z,422
2023-04-04T02:16:23.736Z,415
2023-04-04T02:18:23.132Z,426
2023-04-04T02:19:23.247Z,423
2023-04-04T02:20:23.469Z,426
2023-04-04T02:21:23.683Z,420
2023-04-04T02:22:23.044Z,421
2023-04-04T02:23:22.783Z,431
2023-04-04T02:24:23.319Z,429
2023-04-04T02:25:23.523Z,439
2023-04-04T02:26:23.799Z,442
2023-04-04T02:27:22.908Z,438
2023-04-04T02:28:22.483Z,421
2023-04-04T02:29:23.396Z,427
2023-04-04T02:30:24.130Z,425
2023-04-04T02:31:23.463Z,431
2023-04-04T02:32:23.610Z,441
2023-04-04T02:33:23.065Z,438
2023-04-04T02:34:23.006Z,441
2023-04-04T02:35:23.090Z,444
2023-04-04T02:36:23.008Z,441
2023-04-04T02:37:22.835Z,430
2023-04-04T02:38:23.322Z,420
2023-04-04T02:39:23.259Z,418
2023-04-04T02:40:22.882Z,414
2023-04-04T02:41:23.609Z,422
2023-04-04T02:42:23.307Z,427
2023-04-04T02:43:23.180Z,424
2023-04-04T02:44:23.159Z,427
2023-04-04T02:45:22.878Z,420
2023-04-04T02:46:22.819Z,424
2023-04-04T02:47:22.927Z,425
2023-04-04T02:48:22.824Z,424
2023-04-04T02:49:22.710Z,423
2023-04-04T02:50:23.930Z,422
2023-04-04T02:51:22.862Z,426
2023-04-04T02:52:22.853Z,413
2023-04-04T02:53:23.472Z,414
2023-04-04T02:54:23.248Z,428
2023-04-04T02:55:23.495Z,430
2023-04-04T02:56:23.298Z,428
2023-04-04T02:57:22.604Z,427
2023-04-04T02:58:22.926Z,428
2023-04-04T02:59:22.952Z,430
2023-04-04T03:00:23.940Z,427
2023-04-04T03:01:23.804Z,423
2023-04-04T03:02:23.587Z,427
2023-04-04T03:03:23.082Z,423
2023-04-04T03:04:23.425Z,425
2023-04-04T03:05:23.025Z,421
2023-04-04T03:06:22.939Z,419
2023-04-04T03:07:22.774Z,421
2023-04-04T03:08:22.665Z,424
2023-04-04T03:09:23.019Z,416
2023-04-04T03:10:23.105Z,414
2023-04-04T03:11:22.871Z,423
2023-04-04T03:12:23.088Z,427
2023-04-04T03:13:22.597Z,425
2023-04-04T03:14:23.244Z,428
2023-04-04T03:15:23.336Z,424
2023-04-04T03:16:23.547Z,421
2023-04-04T03:17:23.773Z,427
2023-04-04T03:18:23.212Z,415
2023-04-04T03:19:22.810Z,410
2023-04-04T03:21:23.201Z,412
2023-04-04T03:22:23.130Z,406
2023-04-04T03:23:22.976Z,405
2023-04-04T03:24:22.544Z,413
2023-04-04T03:25:23.069Z,418
2023-04-04T03:26:23.033Z,428
2023-04-04T03:27:22.901Z,427
2023-04-04T03:28:23.218Z,416
2023-04-04T03:29:22.788Z,418
2023-04-04T03:30:23.664Z,420
2023-04-04T03:31:23.267Z,426
2023-04-04T03:32:23.654Z,425
2023-04-04T03:33:22.951Z,419
2023-04-04T03:34:23.328Z,422
2023-04-04T03:36:23.588Z,427
2023-04-04T03:37:23.375Z,434
2023-04-04T03:38:23.065Z,432
2023-04-04T03:39:22.836Z,429
2023-04-04T03:40:23.552Z,421
2023-04-04T03:41:23.040Z,428
2023-04-04T03:42:23.035Z,442
2023-04-04T03:43:23.075Z,433
2023-04-04T03:45:23.417Z,427
2023-04-04T03:46:23.204Z,432
2023-04-04T03:47:23.330Z,444
2023-04-04T03:48:23.424Z,442
2023-04-04T03:49:23.280Z,438
2023-04-04T03:50:23.312Z,441
2023-04-04T03:51:23.824Z,443
2023-04-04T03:52:23.041Z,437
2023-04-04T03:53:27.912Z,432
2023-04-04T03:54:23.031Z,437
2023-04-04T03:55:23.003Z,440
2023-04-04T03:56:23.234Z,443
2023-04-04T03:57:23.287Z,445
2023-04-04T03:58:23.073Z,447
2023-04-04T03:59:22.737Z,446
2023-04-04T04:00:23.765Z,450
2023-04-04T04:01:31.361Z,455
2023-04-04T04:02:23.263Z,454
2023-04-04T04:03:31.376Z,448
2023-04-04T04:04:23.446Z,442
2023-04-04T04:05:23.442Z,449
2023-04-04T04:06:23.559Z,444
2023-04-04T04:08:23.968Z,440
2023-04-04T04:09:22.969Z,441
2023-04-04T04:10:23.211Z,437
2023-04-04T04:11:23.569Z,443
2023-04-04T04:12:23.066Z,448
2023-04-04T04:14:23.595Z,452
2023-04-04T04:15:23.915Z,458
2023-04-04T04:16:23.235Z,460
2023-04-04T04:17:23.237Z,448
2023-04-04T04:18:23.177Z,444
2023-04-04T04:19:23.168Z,451
2023-04-04T04:20:23.204Z,447
2023-04-04T04:21:23.104Z,434
2023-04-04T04:22:22.969Z,435
2023-04-04T04:23:22.821Z,438
2023-04-04T04:24:23.420Z,450
2023-04-04T04:25:23.773Z,449
2023-04-04T04:26:22.768Z,442
2023-04-04T04:27:23.833Z,440
2023-04-04T04:28:23.099Z,447
2023-04-04T04:29:23.878Z,445
2023-04-04T04:30:23.207Z,444
2023-04-04T04:31:23.302Z,440
2023-04-04T04:33:22.807Z,431
2023-04-04T04:34:22.975Z,422
2023-04-04T04:35:23.060Z,432
2023-04-04T04:36:23.148Z,437
2023-04-04T04:37:23.458Z,430
2023-04-04T04:38:23.488Z,422
2023-04-04T04:39:23.329Z,426
2023-04-04T04:40:23.256Z,421
2023-04-04T04:41:23.421Z,410
2023-04-04T04:42:23.065Z,415
2023-04-04T04:43:22.953Z,414
2023-04-04T04:44:22.760Z,412
2023-04-04T04:45:23.275Z,414
2023-04-04T04:46:24.101Z,416
2023-04-04T04:47:24.089Z,425
2023-04-04T04:48:23.408Z,434
2023-04-04T04:49:23.765Z,425
2023-04-04T04:50:23.095Z,426
2023-04-04T04:51:23.081Z,425
2023-04-04T04:52:23.335Z,432
2023-04-04T04:53:23.182Z,429
2023-04-04T04:54:22.982Z,425
2023-04-04T04:55:23.340Z,428
2023-04-04T04:57:23.828Z,427
2023-04-04T04:59:23.317Z,422
2023-04-04T05:00:24.238Z,431
2023-04-04T05:01:23.458Z,422
2023-04-04T05:02:23.711Z,416
2023-04-04T05:03:23.275Z,427
2023-04-04T05:04:23.456Z,423
2023-04-04T05:05:23.367Z,428
2023-04-04T05:06:23.620Z,441
2023-04-04T05:07:23.170Z,433
2023-04-04T05:09:22.841Z,440
2023-04-04T05:10:23.183Z,433
2023-04-04T05:11:23.440Z,436
2023-04-04T05:13:23.593Z,442
2023-04-04T05:14:23.741Z,443
2023-04-04T05:15:24.119Z,446
2023-04-04T05:16:23.357Z,438
2023-04-04T05:17:23.747Z,442
2023-04-04T05:18:23.101Z,439
2023-04-04T05:20:23.065Z,436
2023-04-04T05:22:26.311Z,440
2023-04-04T05:23:23.416Z,442
2023-04-04T05:24:23.160Z,436
2023-04-04T05:25:25.382Z,441
2023-04-04T05:26:23.397Z,435
2023-04-04T05:27:23.294Z,444
2023-04-04T05:28:23.102Z,449
2023-04-04T05:29:22.867Z,456
2023-04-04T05:30:23.193Z,451
2023-04-04T05:31:23.329Z,457
2023-04-04T05:32:23.905Z,462
2023-04-04T05:33:22.914Z,458
2023-04-04T05:34:22.963Z,457
2023-04-04T05:35:23.201Z,459
2023-04-04T05:36:23.374Z,453
2023-04-04T05:37:23.462Z,457
2023-04-04T05:38:23.430Z,463
2023-04-04T05:39:23.434Z,459
2023-04-04T05:40:23.580Z,457
2023-04-04T05:41:23.083Z,453
2023-04-04T05:42:23.342Z,449
2023-04-04T05:43:23.055Z,448
2023-04-04T05:44:23.229Z,459
2023-04-04T05:45:23.221Z,456
2023-04-04T05:46:23.341Z,448
2023-04-04T05:47:23.243Z,456
2023-04-04T05:48:23.508Z,444
2023-04-04T05:49:22.987Z,449
2023-04-04T05:50:23.399Z,447
2023-04-04T05:52:23.366Z,453
2023-04-04T05:53:23.889Z,449
2023-04-04T05:54:23.093Z,445
2023-04-04T05:55:23.309Z,443
2023-04-04T05:56:23.139Z,442
2023-04-04T05:57:24.156Z,435
2023-04-04T05:58:22.929Z,440
2023-04-04T05:59:23.013Z,442
2023-04-04T06:01:23.399Z,438
2023-04-04T06:02:23.688Z,434
2023-04-04T06:03:23.083Z,439
2023-04-04T06:04:23.300Z,446
2023-04-04T06:05:23.227Z,439
2023-04-04T06:06:23.273Z,437
2023-04-04T06:07:23.811Z,451
2023-04-04T06:09:23.209Z,442
2023-04-04T06:10:23.251Z,436
2023-04-04T06:11:23.204Z,433
2023-04-04T06:12:23.403Z,438
2023-04-04T06:13:23.164Z,446
2023-04-04T06:14:23.231Z,444
2023-04-04T06:15:23.445Z,437
2023-04-04T06:16:28.672Z,429
2023-04-04T06:17:22.954Z,435
2023-04-04T06:18:23.052Z,439
2023-04-04T06:19:22.965Z,431
2023-04-04T06:20:23.041Z,428
2023-04-04T06:21:24.033Z,437
2023-04-04T06:22:28.245Z,433
2023-04-04T06:23:23.298Z,434
2023-04-04T06:24:23.204Z,430
2023-04-04T06:25:23.853Z,426
2023-04-04T06:26:23.849Z,422
2023-04-04T06:29:23.309Z,425
2023-04-04T06:30:23.885Z,423
2023-04-04T06:31:23.390Z,417
2023-04-04T06:32:31.740Z,410
2023-04-04T06:33:23.182Z,411
2023-04-04T06:34:37.507Z,425
2023-04-04T06:35:23.269Z,423
2023-04-04T06:36:23.000Z,424
2023-04-04T06:37:23.035Z,416
2023-04-04T06:38:22.928Z,420
2023-04-04T06:39:22.824Z,426
2023-04-04T06:40:22.764Z,428
2023-04-04T06:41:23.485Z,421
2023-04-04T06:42:23.596Z,414
2023-04-04T06:43:23.269Z,419
2023-04-04T06:44:23.533Z,425
2023-04-04T06:45:23.564Z,424
2023-04-04T06:46:23.212Z,408
2023-04-04T06:47:23.358Z,405
2023-04-04T06:48:23.327Z,398
2023-04-04T06:49:24.043Z,403
2023-04-04T06:50:23.298Z,401
2023-04-04T06:51:23.518Z,397
2023-04-04T06:52:23.104Z,399
2023-04-04T06:53:23.223Z,406
2023-04-04T06:54:23.404Z,399
2023-04-04T06:55:23.548Z,387
2023-04-04T06:56:42.428Z,388
2023-04-04T06:57:23.254Z,397
2023-04-04T06:58:23.405Z,394
2023-04-04T06:59:23.508Z,400
2023-04-04T07:00:24.605Z,395
2023-04-04T07:01:23.451Z,394
2023-04-04T07:02:23.743Z,391
2023-04-04T07:03:22.954Z,384
2023-04-04T07:04:23.127Z,390
2023-04-04T07:06:25.894Z,392
2023-04-04T07:07:23.070Z,383
2023-04-04T07:08:23.168Z,385
2023-04-04T07:09:29.174Z,382
2023-04-04T07:10:23.567Z,386
2023-04-04T07:11:23.133Z,397
2023-04-04T07:12:23.309Z,398
2023-04-04T07:13:23.617Z,401
2023-04-04T07:14:23.688Z,392
2023-04-04T07:15:23.685Z,395
2023-04-04T07:16:23.654Z,399
2023-04-04T07:17:25.233Z,398
2023-04-04T07:18:23.670Z,395
2023-04-04T07:19:22.803Z,390
2023-04-04T07:20:23.246Z,396
2023-04-04T07:21:23.177Z,384
2023-04-04T07:23:23.020Z,377
2023-04-04T07:24:23.175Z,382
2023-04-04T07:25:23.493Z,370
2023-04-04T07:26:23.457Z,377
2023-04-04T07:27:23.350Z,388
2023-04-04T07:28:22.876Z,395
2023-04-04T07:29:22.959Z,394
2023-04-04T07:30:23.276Z,397
2023-04-04T07:31:23.545Z,395
2023-04-04T07:32:24.637Z,390
2023-04-04T07:33:23.274Z,393
2023-04-04T07:34:23.492Z,397
2023-04-04T07:35:23.020Z,388
2023-04-04T07:37:23.392Z,400
2023-04-04T07:38:23.415Z,397
2023-04-04T07:39:23.817Z,388
2023-04-04T07:40:23.615Z,380
2023-04-04T07:41:23.279Z,392
2023-04-04T07:42:23.669Z,390
2023-04-04T07:43:23.406Z,383
2023-04-04T07:44:23.365Z,391
2023-04-04T07:45:23.631Z,383
2023-04-04T07:46:23.691Z,386
2023-04-04T07:47:23.117Z,385
2023-04-04T07:48:23.248Z,384
2023-04-04T07:49:23.302Z,392
2023-04-04T07:50:23.772Z,393
2023-04-04T07:51:23.502Z,389
2023-04-04T07:52:23.436Z,385
2023-04-04T07:53:23.430Z,389
2023-04-04T07:55:23.420Z,382
2023-04-04T07:56:23.233Z,384
2023-04-04T07:57:22.937Z,380
2023-04-04T07:58:22.437Z,373
2023-04-04T07:59:23.142Z,370
2023-04-04T08:00:24.055Z,383
2023-04-04T08:01:22.750Z,378
2023-04-04T08:02:23.202Z,372
2023-04-04T08:03:23.836Z,383
2023-04-04T08:04:23.365Z,390
2023-04-04T08:05:23.561Z,385
2023-04-04T08:06:23.454Z,386
2023-04-04T08:07:23.515Z,375
2023-04-04T08:08:23.320Z,379
2023-04-04T08:09:23.509Z,385
2023-04-04T08:12:23.763Z,384
2023-04-04T08:13:23.367Z,389
2023-04-04T08:14:23.660Z,387
2023-04-04T08:15:23.784Z,385
2023-04-04T08:16:23.100Z,393
2023-04-04T08:17:23.005Z,385
2023-04-04T08:18:23.565Z,384
2023-04-04T08:19:23.110Z,376
2023-04-04T08:20:23.045Z,378
2023-04-04T08:21:22.967Z,376
2023-04-04T08:22:22.813Z,377
2023-04-04T08:23:22.697Z,364
2023-04-04T08:24:23.136Z,368
2023-04-04T08:25:23.234Z,369
2023-04-04T08:26:23.217Z,368
2023-04-04T08:27:23.133Z,365
2023-04-04T08:28:22.947Z,372
2023-04-04T08:29:23.047Z,380
2023-04-04T08:30:23.197Z,378
2023-04-04T08:31:23.425Z,373
2023-04-04T08:32:22.979Z,376
2023-04-04T08:33:25.500Z,379
2023-04-04T08:34:23.430Z,367
2023-04-04T08:35:22.904Z,370
2023-04-04T08:36:23.122Z,376
2023-04-04T08:37:23.279Z,367
2023-04-04T08:39:22.988Z,368
2023-04-04T08:40:23.320Z,369
2023-04-04T08:41:23.112Z,372
2023-04-04T08:42:23.093Z,361
2023-04-04T08:43:22.885Z,370
2023-04-04T08:44:23.202Z,376
2023-04-04T08:45:28.242Z,372
2023-04-04T08:46:24.047Z,368
2023-04-04T08:47:28.264Z,372
2023-04-04T08:48:23.192Z,371
2023-04-04T08:49:23.184Z,375
2023-04-04T08:50:22.981Z,365
2023-04-04T08:51:23.150Z,368
2023-04-04T08:52:23.011Z,373
2023-04-04T08:53:30.858Z,381
2023-04-04T08:54:22.723Z,383
2023-04-04T08:55:22.968Z,377
2023-04-04T08:56:23.083Z,374
2023-04-04T08:57:31.544Z,380
2023-04-04T08:58:23.812Z,369
2023-04-04T08:59:23.410Z,373
2023-04-04T09:00:24.528Z,382
2023-04-04T09:01:23.394Z,379
2023-04-04T09:02:23.683Z,377
2023-04-04T09:03:23.081Z,379
2023-04-04T09:04:23.362Z,383
2023-04-04T09:05:23.148Z,375
2023-04-04T09:06:23.220Z,370
2023-04-04T09:08:23.285Z,374
2023-04-04T09:09:23.215Z,367
2023-04-04T09:10:23.632Z,360
2023-04-04T09:11:23.469Z,359
2023-04-04T09:12:23.381Z,362
2023-04-04T09:13:23.596Z,374
2023-04-04T09:14:23.820Z,377
2023-04-04T09:15:24.015Z,379
2023-04-04T09:16:23.121Z,376
2023-04-04T09:17:22.897Z,367
2023-04-04T09:18:22.880Z,362
2023-04-04T09:19:25.687Z,375
2023-04-04T09:20:23.833Z,373
2023-04-04T09:21:42.646Z,368
2023-04-04T09:22:23.235Z,371
2023-04-04T09:23:23.044Z,369
2023-04-04T09:24:23.372Z,379
2023-04-04T09:25:56.263Z,378
2023-04-04T09:26:35.250Z,383
2023-04-04T09:27:23.331Z,377
2023-04-04T09:28:23.114Z,372
2023-04-04T09:29:22.977Z,368
2023-04-04T09:30:23.040Z,372
2023-04-04T09:31:22.851Z,368
2023-04-04T09:33:23.311Z,367
2023-04-04T09:34:23.441Z,371
2023-04-04T09:35:23.197Z,369
2023-04-04T09:36:23.432Z,374
2023-04-04T09:37:23.276Z,371
2023-04-04T09:38:23.178Z,370
2023-04-04T09:39:23.226Z,366
2023-04-04T09:40:23.389Z,364
2023-04-04T09:41:23.143Z,365
2023-04-04T09:42:22.913Z,371
2023-04-04T09:43:22.827Z,369
2023-04-04T09:44:23.044Z,366
2023-04-04T09:45:31.790Z,363
2023-04-04T09:46:22.947Z,360
2023-04-04T09:47:30.678Z,356
2023-04-04T09:48:23.463Z,361
2023-04-04T09:49:23.501Z,354
2023-04-04T09:50:23.651Z,351
2023-04-04T09:51:23.178Z,360
2023-04-04T09:52:23.817Z,366
2023-04-04T09:53:23.114Z,362
2023-04-04T09:54:29.615Z,363
2023-04-04T09:55:23.653Z,378
2023-04-04T09:56:23.739Z,380
2023-04-04T09:58:23.152Z,378
2023-04-04T09:59:23.248Z,366
2023-04-04T10:00:24.063Z,363
2023-04-04T10:02:23.002Z,359
2023-04-04T10:03:23.058Z,364
2023-04-04T10:04:23.525Z,363
2023-04-04T10:05:23.437Z,361
2023-04-04T10:06:23.123Z,358
2023-04-04T10:07:22.976Z,367
2023-04-04T10:09:23.336Z,371
2023-04-04T10:10:23.128Z,378
2023-04-04T10:11:24.178Z,374
2023-04-04T10:12:22.885Z,370
2023-04-04T10:13:22.793Z,374
2023-04-04T10:14:23.205Z,380
2023-04-04T10:15:23.907Z,379
2023-04-04T10:16:23.352Z,370
2023-04-04T10:17:22.992Z,364
2023-04-04T10:18:22.813Z,358
2023-04-04T10:19:22.784Z,357
2023-04-04T10:20:23.140Z,352
2023-04-04T10:21:23.586Z,367
2023-04-04T10:22:23.807Z,372
2023-04-04T10:23:23.036Z,360
2023-04-04T10:24:23.422Z,363
2023-04-04T10:25:23.281Z,357
2023-04-04T10:26:23.159Z,354
2023-04-04T10:27:23.013Z,367
2023-04-04T10:28:23.165Z,364
2023-04-04T10:29:23.252Z,360
2023-04-04T10:30:23.660Z,355
2023-04-04T10:31:23.113Z,363
2023-04-04T10:32:23.748Z,361
2023-04-04T10:33:22.954Z,369
2023-04-04T10:34:23.172Z,368
2023-04-04T10:35:23.808Z,367
2023-04-04T10:36:23.248Z,363
2023-04-04T10:37:23.363Z,365
2023-04-04T10:38:23.773Z,364
2023-04-04T10:39:23.436Z,362
2023-04-04T10:40:23.777Z,352
2023-04-04T10:41:23.253Z,355
2023-04-04T10:42:23.261Z,369
2023-04-04T10:43:23.273Z,371
2023-04-04T10:44:23.541Z,368
2023-04-04T10:45:24.071Z,371
2023-04-04T10:46:23.088Z,367
2023-04-04T10:47:23.592Z,365
2023-04-04T10:48:23.499Z,359
2023-04-04T10:49:23.428Z,360
2023-04-04T10:50:23.615Z,365
2023-04-04T10:51:23.515Z,366
2023-04-04T10:52:23.041Z,360
2023-04-04T10:53:23.933Z,356
2023-04-04T10:54:23.279Z,353
2023-04-04T10:55:23.652Z,358
2023-04-04T10:56:23.220Z,366
2023-04-04T10:57:23.530Z,368
2023-04-04T10:58:23.094Z,366
2023-04-04T10:59:23.676Z,360
2023-04-04T11:00:24.020Z,350
2023-04-04T11:01:23.505Z,352
2023-04-04T11:02:24.080Z,364
2023-04-04T11:03:23.618Z,360
2023-04-04T11:04:23.747Z,357
2023-04-04T11:05:23.380Z,368
2023-04-04T11:06:23.725Z,373
2023-04-04T11:07:23.385Z,371
2023-04-04T11:08:23.498Z,363
2023-04-04T11:09:23.324Z,372
2023-04-04T11:10:28.657Z,379
2023-04-04T11:11:23.283Z,377
2023-04-04T11:12:28.124Z,376
2023-04-04T11:13:23.248Z,371
2023-04-04T11:14:23.337Z,369
2023-04-04T11:15:23.375Z,376
2023-04-04T11:16:31.319Z,373
2023-04-04T11:17:23.820Z,364
2023-04-04T11:18:33.068Z,363
2023-04-04T11:19:23.699Z,372
2023-04-04T11:21:23.658Z,364
2023-04-04T11:22:23.528Z,373
2023-04-04T11:23:22.858Z,370
2023-04-04T11:24:23.503Z,367
2023-04-04T11:25:23.431Z,366
2023-04-04T11:27:22.983Z,369
2023-04-04T11:28:23.255Z,368
2023-04-04T11:29:23.396Z,361
2023-04-04T11:30:24.097Z,363
2023-04-04T11:31:23.017Z,360
2023-04-04T11:32:37.826Z,361
2023-04-04T11:33:22.838Z,368
2023-04-04T11:34:23.826Z,365
2023-04-04T11:35:23.221Z,361
2023-04-04T11:36:22.943Z,350
2023-04-04T11:37:22.759Z,352
2023-04-04T11:38:22.753Z,356
2023-04-04T11:39:23.607Z,357
2023-04-04T11:40:41.818Z,364
2023-04-04T11:41:23.682Z,358
2023-04-04T11:42:23.733Z,365
2023-04-04T11:43:22.587Z,360
2023-04-04T11:44:23.859Z,364
2023-04-04T11:45:23.049Z,355
2023-04-04T11:46:23.168Z,353
2023-04-04T11:47:22.814Z,354
2023-04-04T11:48:23.195Z,364
2023-04-04T11:49:23.170Z,350
2023-04-04T11:50:23.197Z,355
2023-04-04T11:51:22.826Z,369
2023-04-04T11:52:23.481Z,371
2023-04-04T11:53:23.471Z,378
2023-04-04T11:54:23.489Z,375
2023-04-04T11:55:23.747Z,371
2023-04-04T11:57:23.261Z,377
2023-04-04T11:58:23.168Z,374
2023-04-04T11:59:23.230Z,367
2023-04-04T12:00:24.340Z,357
2023-04-04T12:01:22.423Z,365
2023-04-04T12:02:23.732Z,364
2023-04-04T12:03:23.415Z,376
2023-04-04T12:05:24.005Z,382
2023-04-04T12:07:23.597Z,374
2023-04-04T12:08:22.602Z,379
2023-04-04T12:09:23.362Z,369
2023-04-04T12:11:23.560Z,363
2023-04-04T12:12:23.146Z,374
2023-04-04T12:14:23.434Z,376
2023-04-04T12:15:23.731Z,371
2023-04-04T12:16:23.721Z,375
2023-04-04T12:17:23.288Z,379
2023-04-04T12:18:23.715Z,373
2023-04-04T12:22:23.482Z,366
2023-04-04T12:23:23.185Z,367
2023-04-04T12:24:23.778Z,358
2023-04-04T12:26:23.177Z,359
2023-04-04T12:28:23.289Z,365
2023-04-04T12:29:22.959Z,372
2023-04-04T12:31:26.290Z,362
2023-04-04T12:32:23.986Z,362
2023-04-04T12:33:23.502Z,368
2023-04-04T12:34:23.725Z,368
2023-04-04T12:37:23.540Z,371
2023-04-04T12:38:23.061Z,361
2023-04-04T12:40:23.139Z,354
2023-04-04T12:42:24.167Z,368
2023-04-04T12:44:23.382Z,366
2023-04-04T12:46:23.299Z,367
2023-04-04T12:48:23.869Z,370
2023-04-04T12:49:23.407Z,369
2023-04-04T12:50:23.560Z,365
2023-04-04T12:52:23.070Z,366
2023-04-04T12:54:22.964Z,366
2023-04-04T12:56:23.464Z,367
2023-04-04T12:57:23.664Z,367
2023-04-04T12:59:23.785Z,363
2023-04-04T13:01:23.475Z,349
2023-04-04T13:03:23.176Z,352
2023-04-04T13:05:23.247Z,374
2023-04-04T13:06:23.159Z,366
2023-04-04T13:07:23.965Z,361
2023-04-04T13:08:23.626Z,358
2023-04-04T13:09:23.109Z,357
2023-04-04T13:11:22.994Z,373
2023-04-04T13:12:23.298Z,372
2023-04-04T13:13:23.592Z,368
2023-04-04T13:14:22.757Z,371
2023-04-04T13:15:23.721Z,372
2023-04-04T13:16:23.038Z,374
2023-04-04T13:17:23.822Z,368
2023-04-04T13:18:23.208Z,365
2023-04-04T13:19:24.597Z,371
2023-04-04T13:20:23.142Z,372
2023-04-04T13:21:23.364Z,368
2023-04-04T13:22:23.700Z,365
2023-04-04T13:23:22.975Z,368
2023-04-04T13:24:23.392Z,367
2023-04-04T13:25:23.207Z,359
2023-04-04T13:26:23.406Z,361
2023-04-04T13:27:23.669Z,364
2023-04-04T13:28:23.509Z,365
2023-04-04T13:29:23.748Z,375
2023-04-04T13:30:23.651Z,370
2023-04-04T13:31:28.065Z,376
2023-04-04T13:32:23.499Z,366
2023-04-04T13:33:23.375Z,371
2023-04-04T13:34:23.379Z,368
2023-04-04T13:35:28.579Z,366
2023-04-04T13:36:23.140Z,370
2023-04-04T13:37:23.666Z,357
2023-04-04T13:38:23.337Z,354
2023-04-04T13:39:23.273Z,368
2023-04-04T13:40:23.437Z,360
2023-04-04T13:41:23.389Z,350
2023-04-04T13:42:23.751Z,351
2023-04-04T13:43:23.173Z,364
2023-04-04T13:44:24.795Z,361
2023-04-04T13:45:23.604Z,353
2023-04-04T13:46:23.228Z,356
2023-04-04T13:47:31.465Z,355
2023-04-04T13:48:23.750Z,363
2023-04-04T13:49:23.505Z,367
2023-04-04T13:50:24.196Z,360
2023-04-04T13:51:37.001Z,353
2023-04-04T13:52:23.190Z,364
2023-04-04T13:53:23.294Z,366
2023-04-04T13:54:23.651Z,370
2023-04-04T13:55:22.823Z,371
2023-04-04T13:56:23.905Z,370
2023-04-04T13:57:23.677Z,366
2023-04-04T13:58:23.160Z,365
2023-04-04T13:59:23.629Z,369
2023-04-04T14:00:23.688Z,350
2023-04-04T14:01:37.046Z,345
2023-04-04T14:02:23.704Z,366
2023-04-04T14:03:23.729Z,373
2023-04-04T14:04:24.393Z,380
2023-04-04T14:05:23.598Z,376
2023-04-04T14:06:23.783Z,373
2023-04-04T14:07:23.538Z,368
2023-04-04T14:08:23.481Z,352
2023-04-04T14:09:42.355Z,355
2023-04-04T14:10:23.880Z,357
2023-04-04T14:11:23.686Z,360
2023-04-04T14:12:23.272Z,355
2023-04-04T14:13:23.365Z,362
2023-04-04T14:14:23.878Z,364
2023-04-04T14:15:23.284Z,366
2023-04-04T14:16:23.417Z,368
2023-04-04T14:17:22.942Z,373
2023-04-04T14:19:22.820Z,368
2023-04-04T14:20:22.979Z,357
2023-04-04T14:21:23.169Z,354
2023-04-04T14:22:23.141Z,358
2023-04-04T14:23:23.329Z,351
2023-04-04T14:24:23.483Z,356
2023-04-04T14:25:23.166Z,365
2023-04-04T14:26:22.916Z,380
2023-04-04T14:27:23.435Z,368
2023-04-04T14:28:23.488Z,367
2023-04-04T14:30:23.710Z,366
2023-04-04T14:31:22.979Z,375
2023-04-04T14:32:23.561Z,362
2023-04-04T14:33:23.055Z,349
2023-04-04T14:34:23.275Z,354
2023-04-04T14:35:23.749Z,357
2023-04-04T14:36:24.084Z,351
2023-04-04T14:37:23.716Z,342
2023-04-04T14:38:24.012Z,346
2023-04-04T14:39:23.586Z,349
2023-04-04T14:40:24.296Z,356
2023-04-04T14:41:23.808Z,348
2023-04-04T14:42:23.504Z,358
2023-04-04T14:43:22.939Z,368
2023-04-04T14:44:23.125Z,380
2023-04-04T14:45:23.324Z,377
2023-04-04T14:46:23.818Z,370
2023-04-04T14:47:23.133Z,371
2023-04-04T14:48:23.955Z,358
2023-04-04T14:49:23.088Z,355
2023-04-04T14:50:23.226Z,360
2023-04-04T14:51:22.837Z,358
2023-04-04T14:52:22.963Z,362
2023-04-04T14:53:23.444Z,374
2023-04-04T14:54:23.489Z,372
2023-04-04T14:55:23.678Z,358
2023-04-04T14:56:23.565Z,367
2023-04-04T14:57:23.270Z,360
2023-04-04T14:58:22.800Z,359
2023-04-04T15:00:24.109Z,355
2023-04-04T15:02:27.290Z,366
2023-04-04T15:03:22.981Z,360
2023-04-04T15:04:23.158Z,370
2023-04-04T15:05:23.103Z,371
2023-04-04T15:06:23.262Z,364
2023-04-04T15:07:24.022Z,354